sensor_id;sensor_type;location;lat;lon;timestamp;P1;durP1;ratioP1;P2;durP2;ratioP2
41689;SDS011;27372;42.658;23.256;2023-12-20T00:00:56;44.33;;;20.20;;
41689;SDS011;27372;42.658;23.256;2023-12-20T00:03:22;36.17;;;17.58;;
41689;SDS011;27372;42.658;23.256;2023-12-20T00:05:48;39.47;;;18.95;;
41689;SDS011;27372;42.658;23.256;2023-12-20T00:08:14;30.20;;;16.05;;
41689;SDS011;27372;42.658;23.256;2023-12-20T00:10:39;37.40;;;16.98;;
41689;SDS011;27372;42.658;23.256;2023-12-20T00:13:05;36.90;;;15.57;;
41689;SDS011;27372;42.658;23.256;2023-12-20T00:15:32;27.52;;;14.50;;
41689;SDS011;27372;42.658;23.256;2023-12-20T00:17:57;33.15;;;14.77;;
41689;SDS011;27372;42.658;23.256;2023-12-20T00:20:23;27.45;;;12.52;;
41689;SDS011;27372;42.658;23.256;2023-12-20T00:22:48;29.27;;;13.25;;
41689;SDS011;27372;42.658;23.256;2023-12-20T00:25:13;29.13;;;12.77;;
41689;SDS011;27372;42.658;23.256;2023-12-20T00:27:39;26.35;;;12.98;;
41689;SDS011;27372;42.658;23.256;2023-12-20T00:30:04;29.90;;;11.75;;
41689;SDS011;27372;42.658;23.256;2023-12-20T00:32:30;26.00;;;12.13;;
41689;SDS011;27372;42.658;23.256;2023-12-20T00:34:56;23.70;;;11.98;;
41689;SDS011;27372;42.658;23.256;2023-12-20T00:37:21;27.60;;;12.65;;
41689;SDS011;27372;42.658;23.256;2023-12-20T00:39:47;22.33;;;10.95;;
41689;SDS011;27372;42.658;23.256;2023-12-20T00:42:13;28.38;;;11.93;;
41689;SDS011;27372;42.658;23.256;2023-12-20T00:44:38;26.05;;;12.30;;
41689;SDS011;27372;42.658;23.256;2023-12-20T00:47:03;26.67;;;12.43;;
41689;SDS011;27372;42.658;23.256;2023-12-20T00:49:29;32.45;;;14.60;;
41689;SDS011;27372;42.658;23.256;2023-12-20T00:51:54;33.63;;;15.13;;
41689;SDS011;27372;42.658;23.256;2023-12-20T00:54:20;37.10;;;16.52;;
41689;SDS011;27372;42.658;23.256;2023-12-20T00:56:45;53.22;;;20.30;;
41689;SDS011;27372;42.658;23.256;2023-12-20T00:59:10;47.08;;;20.83;;
41689;SDS011;27372;42.658;23.256;2023-12-20T01:01:36;46.05;;;21.15;;
41689;SDS011;27372;42.658;23.256;2023-12-20T01:04:01;48.05;;;21.20;;
41689;SDS011;27372;42.658;23.256;2023-12-20T01:06:27;46.38;;;20.38;;
41689;SDS011;27372;42.658;23.256;2023-12-20T01:08:52;39.15;;;19.58;;
41689;SDS011;27372;42.658;23.256;2023-12-20T01:11:17;44.55;;;18.77;;
41689;SDS011;27372;42.658;23.256;2023-12-20T01:13:43;37.15;;;16.27;;
41689;SDS011;27372;42.658;23.256;2023-12-20T01:16:11;21.77;;;11.65;;
41689;SDS011;27372;42.658;23.256;2023-12-20T01:18:37;25.67;;;10.93;;
41689;SDS011;27372;42.658;23.256;2023-12-20T01:21:03;24.40;;;12.15;;
41689;SDS011;27372;42.658;23.256;2023-12-20T01:23:30;26.45;;;12.23;;
41689;SDS011;27372;42.658;23.256;2023-12-20T01:25:55;16.20;;;9.40;;
41689;SDS011;27372;42.658;23.256;2023-12-20T01:28:21;19.42;;;10.40;;
41689;SDS011;27372;42.658;23.256;2023-12-20T01:30:46;19.60;;;10.90;;
41689;SDS011;27372;42.658;23.256;2023-12-20T01:33:12;26.77;;;11.35;;
41689;SDS011;27372;42.658;23.256;2023-12-20T01:35:37;22.17;;;11.80;;
41689;SDS011;27372;42.658;23.256;2023-12-20T01:38:02;35.78;;;16.25;;
41689;SDS011;27372;42.658;23.256;2023-12-20T01:40:28;45.00;;;18.65;;
41689;SDS011;27372;42.658;23.256;2023-12-20T01:45:26;52.30;;;26.48;;
41689;SDS011;27372;42.658;23.256;2023-12-20T01:47:52;56.72;;;29.73;;
41689;SDS011;27372;42.658;23.256;2023-12-20T01:50:18;42.28;;;19.70;;
41689;SDS011;27372;42.658;23.256;2023-12-20T01:52:43;41.88;;;22.05;;
41689;SDS011;27372;42.658;23.256;2023-12-20T01:55:10;52.00;;;25.83;;
41689;SDS011;27372;42.658;23.256;2023-12-20T01:57:41;58.65;;;26.17;;
41689;SDS011;27372;42.658;23.256;2023-12-20T02:00:08;42.88;;;20.65;;
41689;SDS011;27372;42.658;23.256;2023-12-20T02:02:36;39.33;;;19.30;;
41689;SDS011;27372;42.658;23.256;2023-12-20T02:05:04;43.63;;;21.55;;
41689;SDS011;27372;42.658;23.256;2023-12-20T02:07:30;40.10;;;21.60;;
41689;SDS011;27372;42.658;23.256;2023-12-20T02:09:56;37.47;;;19.98;;
41689;SDS011;27372;42.658;23.256;2023-12-20T02:12:22;32.92;;;16.95;;
41689;SDS011;27372;42.658;23.256;2023-12-20T02:14:48;35.47;;;17.10;;
41689;SDS011;27372;42.658;23.256;2023-12-20T02:17:14;40.90;;;21.73;;
41689;SDS011;27372;42.658;23.256;2023-12-20T02:19:40;25.45;;;12.93;;
41689;SDS011;27372;42.658;23.256;2023-12-20T02:22:09;26.70;;;14.02;;
41689;SDS011;27372;42.658;23.256;2023-12-20T02:24:35;37.92;;;18.73;;
41689;SDS011;27372;42.658;23.256;2023-12-20T02:27:00;28.25;;;14.23;;
41689;SDS011;27372;42.658;23.256;2023-12-20T02:29:26;33.80;;;18.42;;
41689;SDS011;27372;42.658;23.256;2023-12-20T02:31:52;38.17;;;18.77;;
41689;SDS011;27372;42.658;23.256;2023-12-20T02:34:17;47.67;;;21.15;;
41689;SDS011;27372;42.658;23.256;2023-12-20T02:36:43;41.97;;;19.42;;
41689;SDS011;27372;42.658;23.256;2023-12-20T02:39:08;40.42;;;19.00;;
41689;SDS011;27372;42.658;23.256;2023-12-20T02:41:33;32.45;;;16.33;;
41689;SDS011;27372;42.658;23.256;2023-12-20T02:43:59;25.35;;;12.40;;
41689;SDS011;27372;42.658;23.256;2023-12-20T02:46:25;28.50;;;13.10;;
41689;SDS011;27372;42.658;23.256;2023-12-20T02:48:50;27.45;;;12.75;;
41689;SDS011;27372;42.658;23.256;2023-12-20T02:51:16;20.70;;;11.05;;
41689;SDS011;27372;42.658;23.256;2023-12-20T02:53:41;22.13;;;10.75;;
41689;SDS011;27372;42.658;23.256;2023-12-20T02:56:07;22.85;;;11.77;;
41689;SDS011;27372;42.658;23.256;2023-12-20T02:58:32;21.33;;;11.27;;
41689;SDS011;27372;42.658;23.256;2023-12-20T03:00:57;28.88;;;12.93;;
41689;SDS011;27372;42.658;23.256;2023-12-20T03:03:23;29.00;;;14.18;;
41689;SDS011;27372;42.658;23.256;2023-12-20T03:05:48;32.42;;;17.30;;
41689;SDS011;27372;42.658;23.256;2023-12-20T03:08:14;64.75;;;32.72;;
41689;SDS011;27372;42.658;23.256;2023-12-20T03:10:39;30.30;;;14.82;;
41689;SDS011;27372;42.658;23.256;2023-12-20T03:13:04;38.08;;;20.80;;
41689;SDS011;27372;42.658;23.256;2023-12-20T03:15:30;34.83;;;18.42;;
41689;SDS011;27372;42.658;23.256;2023-12-20T03:17:55;42.25;;;19.25;;
41689;SDS011;27372;42.658;23.256;2023-12-20T03:20:21;40.85;;;18.70;;
41689;SDS011;27372;42.658;23.256;2023-12-20T03:22:46;42.85;;;20.95;;
41689;SDS011;27372;42.658;23.256;2023-12-20T03:25:11;63.35;;;29.80;;
41689;SDS011;27372;42.658;23.256;2023-12-20T03:27:37;74.60;;;35.95;;
41689;SDS011;27372;42.658;23.256;2023-12-20T03:30:05;59.45;;;26.40;;
41689;SDS011;27372;42.658;23.256;2023-12-20T03:32:31;59.92;;;28.20;;
41689;SDS011;27372;42.658;23.256;2023-12-20T03:34:57;46.40;;;22.42;;
41689;SDS011;27372;42.658;23.256;2023-12-20T03:37:22;40.03;;;19.17;;
41689;SDS011;27372;42.658;23.256;2023-12-20T03:39:48;38.97;;;17.83;;
41689;SDS011;27372;42.658;23.256;2023-12-20T03:42:13;33.22;;;16.92;;
41689;SDS011;27372;42.658;23.256;2023-12-20T03:44:39;36.70;;;16.88;;
41689;SDS011;27372;42.658;23.256;2023-12-20T03:47:07;35.13;;;17.95;;
41689;SDS011;27372;42.658;23.256;2023-12-20T03:49:32;40.70;;;20.42;;
41689;SDS011;27372;42.658;23.256;2023-12-20T03:51:58;24.95;;;13.68;;
41689;SDS011;27372;42.658;23.256;2023-12-20T03:54:23;37.45;;;18.80;;
41689;SDS011;27372;42.658;23.256;2023-12-20T03:56:49;26.65;;;14.43;;
41689;SDS011;27372;42.658;23.256;2023-12-20T03:59:15;11.57;;;7.35;;
41689;SDS011;27372;42.658;23.256;2023-12-20T04:01:44;38.53;;;16.42;;
41689;SDS011;27372;42.658;23.256;2023-12-20T04:06:35;39.92;;;18.65;;
41689;SDS011;27372;42.658;23.256;2023-12-20T04:09:00;41.03;;;17.70;;
41689;SDS011;27372;42.658;23.256;2023-12-20T04:11:26;58.72;;;24.33;;
41689;SDS011;27372;42.658;23.256;2023-12-20T04:13:51;44.17;;;21.48;;
41689;SDS011;27372;42.658;23.256;2023-12-20T04:16:17;47.50;;;24.20;;
41689;SDS011;27372;42.658;23.256;2023-12-20T04:18:42;58.83;;;27.77;;
41689;SDS011;27372;42.658;23.256;2023-12-20T04:21:07;52.58;;;26.55;;
41689;SDS011;27372;42.658;23.256;2023-12-20T04:23:33;39.65;;;18.23;;
41689;SDS011;27372;42.658;23.256;2023-12-20T04:25:58;43.65;;;21.48;;
41689;SDS011;27372;42.658;23.256;2023-12-20T04:28:23;39.10;;;18.15;;
41689;SDS011;27372;42.658;23.256;2023-12-20T04:30:49;43.05;;;21.98;;
41689;SDS011;27372;42.658;23.256;2023-12-20T04:33:14;33.97;;;19.48;;
41689;SDS011;27372;42.658;23.256;2023-12-20T04:35:40;40.65;;;20.20;;
41689;SDS011;27372;42.658;23.256;2023-12-20T04:38:06;39.30;;;18.60;;
41689;SDS011;27372;42.658;23.256;2023-12-20T04:40:31;33.30;;;16.50;;
41689;SDS011;27372;42.658;23.256;2023-12-20T04:42:57;25.02;;;13.80;;
41689;SDS011;27372;42.658;23.256;2023-12-20T04:45:22;40.95;;;19.42;;
41689;SDS011;27372;42.658;23.256;2023-12-20T04:47:49;30.73;;;15.57;;
41689;SDS011;27372;42.658;23.256;2023-12-20T04:50:15;42.70;;;19.92;;
41689;SDS011;27372;42.658;23.256;2023-12-20T04:52:41;37.53;;;17.17;;
41689;SDS011;27372;42.658;23.256;2023-12-20T04:55:07;38.25;;;18.77;;
41689;SDS011;27372;42.658;23.256;2023-12-20T04:57:33;35.25;;;17.50;;
41689;SDS011;27372;42.658;23.256;2023-12-20T04:59:59;37.50;;;19.40;;
41689;SDS011;27372;42.658;23.256;2023-12-20T05:02:25;45.47;;;21.00;;
41689;SDS011;27372;42.658;23.256;2023-12-20T05:04:50;42.90;;;21.95;;
41689;SDS011;27372;42.658;23.256;2023-12-20T05:07:15;42.40;;;19.92;;
41689;SDS011;27372;42.658;23.256;2023-12-20T05:09:41;39.78;;;20.63;;
41689;SDS011;27372;42.658;23.256;2023-12-20T05:12:07;44.60;;;20.17;;
41689;SDS011;27372;42.658;23.256;2023-12-20T05:14:33;41.47;;;19.95;;
41689;SDS011;27372;42.658;23.256;2023-12-20T05:16:58;35.78;;;18.70;;
41689;SDS011;27372;42.658;23.256;2023-12-20T05:19:24;47.65;;;21.92;;
41689;SDS011;27372;42.658;23.256;2023-12-20T05:21:49;42.53;;;20.60;;
41689;SDS011;27372;42.658;23.256;2023-12-20T05:24:15;44.00;;;21.70;;
41689;SDS011;27372;42.658;23.256;2023-12-20T05:26:41;49.28;;;22.45;;
41689;SDS011;27372;42.658;23.256;2023-12-20T05:29:06;52.17;;;23.50;;
41689;SDS011;27372;42.658;23.256;2023-12-20T05:31:32;47.95;;;21.70;;
41689;SDS011;27372;42.658;23.256;2023-12-20T05:33:57;44.58;;;22.67;;
41689;SDS011;27372;42.658;23.256;2023-12-20T05:36:23;42.40;;;21.38;;
41689;SDS011;27372;42.658;23.256;2023-12-20T05:38:48;48.55;;;22.95;;
41689;SDS011;27372;42.658;23.256;2023-12-20T05:41:14;43.88;;;22.80;;
41689;SDS011;27372;42.658;23.256;2023-12-20T05:43:39;48.80;;;23.40;;
41689;SDS011;27372;42.658;23.256;2023-12-20T05:46:05;44.03;;;22.73;;
41689;SDS011;27372;42.658;23.256;2023-12-20T05:48:30;42.80;;;21.83;;
41689;SDS011;27372;42.658;23.256;2023-12-20T05:50:56;50.97;;;26.13;;
41689;SDS011;27372;42.658;23.256;2023-12-20T05:53:21;45.67;;;24.10;;
41689;SDS011;27372;42.658;23.256;2023-12-20T05:55:46;59.05;;;29.73;;
41689;SDS011;27372;42.658;23.256;2023-12-20T05:58:12;44.60;;;22.80;;
41689;SDS011;27372;42.658;23.256;2023-12-20T06:00:37;46.55;;;23.55;;
41689;SDS011;27372;42.658;23.256;2023-12-20T06:03:03;46.95;;;23.35;;
41689;SDS011;27372;42.658;23.256;2023-12-20T06:05:30;49.67;;;27.35;;
41689;SDS011;27372;42.658;23.256;2023-12-20T06:07:55;59.63;;;28.85;;
41689;SDS011;27372;42.658;23.256;2023-12-20T06:10:26;55.42;;;25.90;;
41689;SDS011;27372;42.658;23.256;2023-12-20T06:12:52;53.95;;;25.90;;
41689;SDS011;27372;42.658;23.256;2023-12-20T06:15:17;52.83;;;27.95;;
41689;SDS011;27372;42.658;23.256;2023-12-20T06:17:43;52.70;;;25.83;;
41689;SDS011;27372;42.658;23.256;2023-12-20T06:20:08;49.88;;;27.15;;
41689;SDS011;27372;42.658;23.256;2023-12-20T06:22:35;56.67;;;29.90;;
41689;SDS011;27372;42.658;23.256;2023-12-20T06:25:37;64.72;;;32.60;;
41689;SDS011;27372;42.658;23.256;2023-12-20T06:28:02;73.38;;;37.13;;
41689;SDS011;27372;42.658;23.256;2023-12-20T06:30:28;78.97;;;35.42;;
41689;SDS011;27372;42.658;23.256;2023-12-20T06:32:54;85.47;;;42.05;;
41689;SDS011;27372;42.658;23.256;2023-12-20T06:35:20;78.30;;;38.40;;
41689;SDS011;27372;42.658;23.256;2023-12-20T06:37:45;63.38;;;32.47;;
41689;SDS011;27372;42.658;23.256;2023-12-20T06:40:11;55.47;;;28.10;;
41689;SDS011;27372;42.658;23.256;2023-12-20T06:42:37;83.68;;;40.70;;
41689;SDS011;27372;42.658;23.256;2023-12-20T06:45:02;88.25;;;40.78;;
41689;SDS011;27372;42.658;23.256;2023-12-20T06:47:28;87.65;;;40.85;;
41689;SDS011;27372;42.658;23.256;2023-12-20T06:49:54;97.68;;;45.55;;
41689;SDS011;27372;42.658;23.256;2023-12-20T06:52:19;99.20;;;45.72;;
41689;SDS011;27372;42.658;23.256;2023-12-20T06:54:44;98.68;;;46.10;;
41689;SDS011;27372;42.658;23.256;2023-12-20T06:57:10;98.53;;;46.83;;
41689;SDS011;27372;42.658;23.256;2023-12-20T06:59:39;92.60;;;45.00;;
41689;SDS011;27372;42.658;23.256;2023-12-20T07:02:05;87.13;;;43.10;;
41689;SDS011;27372;42.658;23.256;2023-12-20T07:04:31;78.82;;;39.50;;
41689;SDS011;27372;42.658;23.256;2023-12-20T07:06:56;77.18;;;38.47;;
41689;SDS011;27372;42.658;23.256;2023-12-20T07:09:25;79.50;;;38.83;;
41689;SDS011;27372;42.658;23.256;2023-12-20T07:11:51;72.47;;;35.40;;
41689;SDS011;27372;42.658;23.256;2023-12-20T07:14:16;75.57;;;35.72;;
41689;SDS011;27372;42.658;23.256;2023-12-20T07:16:42;81.43;;;39.97;;
41689;SDS011;27372;42.658;23.256;2023-12-20T07:19:07;98.95;;;47.50;;
41689;SDS011;27372;42.658;23.256;2023-12-20T07:21:32;103.93;;;52.00;;
41689;SDS011;27372;42.658;23.256;2023-12-20T07:23:58;95.85;;;46.58;;
41689;SDS011;27372;42.658;23.256;2023-12-20T07:26:23;98.07;;;48.58;;
41689;SDS011;27372;42.658;23.256;2023-12-20T07:31:18;126.20;;;57.70;;
41689;SDS011;27372;42.658;23.256;2023-12-20T07:44:01;121.15;;;59.75;;
41689;SDS011;27372;42.658;23.256;2023-12-20T07:53:50;130.00;;;57.10;;
41689;SDS011;27372;42.658;23.256;2023-12-20T07:56:21;132.48;;;60.03;;
41689;SDS011;27372;42.658;23.256;2023-12-20T07:58:46;144.47;;;63.30;;
41689;SDS011;27372;42.658;23.256;2023-12-20T08:01:32;144.85;;;62.10;;
41689;SDS011;27372;42.658;23.256;2023-12-20T08:04:22;132.70;;;59.63;;
41689;SDS011;27372;42.658;23.256;2023-12-20T08:06:48;133.52;;;60.30;;
41689;SDS011;27372;42.658;23.256;2023-12-20T08:09:13;199.70;;;90.75;;
41689;SDS011;27372;42.658;23.256;2023-12-20T08:11:39;126.47;;;58.70;;
41689;SDS011;27372;42.658;23.256;2023-12-20T08:14:04;119.10;;;57.55;;
41689;SDS011;27372;42.658;23.256;2023-12-20T08:16:50;124.82;;;58.50;;
41689;SDS011;27372;42.658;23.256;2023-12-20T08:19:36;138.35;;;60.47;;
41689;SDS011;27372;42.658;23.256;2023-12-20T08:22:02;130.10;;;61.15;;
41689;SDS011;27372;42.658;23.256;2023-12-20T08:24:29;134.20;;;65.63;;
41689;SDS011;27372;42.658;23.256;2023-12-20T08:26:55;131.15;;;63.97;;
41689;SDS011;27372;42.658;23.256;2023-12-20T08:29:20;135.27;;;63.63;;
41689;SDS011;27372;42.658;23.256;2023-12-20T08:31:46;132.05;;;61.17;;
41689;SDS011;27372;42.658;23.256;2023-12-20T08:34:11;128.88;;;62.85;;
41689;SDS011;27372;42.658;23.256;2023-12-20T08:36:39;145.55;;;69.25;;
41689;SDS011;27372;42.658;23.256;2023-12-20T08:39:04;158.07;;;71.30;;
41689;SDS011;27372;42.658;23.256;2023-12-20T08:41:32;170.63;;;81.75;;
41689;SDS011;27372;42.658;23.256;2023-12-20T08:43:57;175.70;;;80.22;;
41689;SDS011;27372;42.658;23.256;2023-12-20T08:46:23;164.02;;;72.80;;
41689;SDS011;27372;42.658;23.256;2023-12-20T08:48:48;167.32;;;75.00;;
41689;SDS011;27372;42.658;23.256;2023-12-20T08:51:14;161.98;;;72.68;;
41689;SDS011;27372;42.658;23.256;2023-12-20T08:53:39;173.48;;;74.72;;
41689;SDS011;27372;42.658;23.256;2023-12-20T08:56:04;290.13;;;121.43;;
41689;SDS011;27372;42.658;23.256;2023-12-20T08:58:30;181.60;;;80.28;;
41689;SDS011;27372;42.658;23.256;2023-12-20T09:00:55;183.18;;;78.50;;
41689;SDS011;27372;42.658;23.256;2023-12-20T09:03:22;238.95;;;98.15;;
41689;SDS011;27372;42.658;23.256;2023-12-20T09:05:47;179.65;;;79.40;;
41689;SDS011;27372;42.658;23.256;2023-12-20T09:08:13;179.20;;;74.85;;
41689;SDS011;27372;42.658;23.256;2023-12-20T09:10:38;170.88;;;71.25;;
41689;SDS011;27372;42.658;23.256;2023-12-20T09:13:04;167.63;;;71.35;;
41689;SDS011;27372;42.658;23.256;2023-12-20T09:15:29;190.73;;;83.88;;
41689;SDS011;27372;42.658;23.256;2023-12-20T09:17:55;179.30;;;78.80;;
41689;SDS011;27372;42.658;23.256;2023-12-20T09:20:20;199.73;;;86.57;;
41689;SDS011;27372;42.658;23.256;2023-12-20T09:22:48;184.70;;;78.28;;
41689;SDS011;27372;42.658;23.256;2023-12-20T09:25:14;170.82;;;73.05;;
41689;SDS011;27372;42.658;23.256;2023-12-20T09:27:40;167.48;;;71.10;;
41689;SDS011;27372;42.658;23.256;2023-12-20T09:30:06;158.98;;;70.32;;
41689;SDS011;27372;42.658;23.256;2023-12-20T09:32:32;170.70;;;73.85;;
41689;SDS011;27372;42.658;23.256;2023-12-20T09:34:58;158.27;;;74.15;;
41689;SDS011;27372;42.658;23.256;2023-12-20T09:37:27;169.32;;;76.40;;
41689;SDS011;27372;42.658;23.256;2023-12-20T09:42:21;166.25;;;73.60;;
41689;SDS011;27372;42.658;23.256;2023-12-20T09:44:54;166.05;;;73.15;;
41689;SDS011;27372;42.658;23.256;2023-12-20T09:47:20;173.18;;;77.28;;
41689;SDS011;27372;42.658;23.256;2023-12-20T09:49:49;162.13;;;76.18;;
41689;SDS011;27372;42.658;23.256;2023-12-20T09:52:15;176.70;;;76.50;;
41689;SDS011;27372;42.658;23.256;2023-12-20T09:54:43;171.32;;;77.32;;
41689;SDS011;27372;42.658;23.256;2023-12-20T09:57:10;173.77;;;76.32;;
41689;SDS011;27372;42.658;23.256;2023-12-20T09:59:35;163.68;;;74.22;;
41689;SDS011;27372;42.658;23.256;2023-12-20T10:02:00;162.57;;;74.68;;
41689;SDS011;27372;42.658;23.256;2023-12-20T10:04:28;169.52;;;75.80;;
41689;SDS011;27372;42.658;23.256;2023-12-20T10:06:57;170.05;;;76.70;;
41689;SDS011;27372;42.658;23.256;2023-12-20T10:09:26;167.23;;;77.82;;
41689;SDS011;27372;42.658;23.256;2023-12-20T10:11:54;163.93;;;77.95;;
41689;SDS011;27372;42.658;23.256;2023-12-20T10:14:19;174.63;;;79.72;;
41689;SDS011;27372;42.658;23.256;2023-12-20T10:16:47;164.80;;;73.25;;
41689;SDS011;27372;42.658;23.256;2023-12-20T10:19:15;154.10;;;73.85;;
41689;SDS011;27372;42.658;23.256;2023-12-20T10:21:42;164.07;;;73.80;;
41689;SDS011;27372;42.658;23.256;2023-12-20T10:24:08;157.13;;;72.40;;
41689;SDS011;27372;42.658;23.256;2023-12-20T10:26:33;156.15;;;74.40;;
41689;SDS011;27372;42.658;23.256;2023-12-20T10:29:02;151.55;;;75.20;;
41689;SDS011;27372;42.658;23.256;2023-12-20T10:31:30;147.75;;;72.75;;
41689;SDS011;27372;42.658;23.256;2023-12-20T10:33:57;153.52;;;77.25;;
41689;SDS011;27372;42.658;23.256;2023-12-20T10:36:26;152.32;;;76.18;;
41689;SDS011;27372;42.658;23.256;2023-12-20T10:38:54;157.37;;;79.03;;
41689;SDS011;27372;42.658;23.256;2023-12-20T10:41:26;154.45;;;78.00;;
41689;SDS011;27372;42.658;23.256;2023-12-20T10:44:03;146.52;;;75.63;;
41689;SDS011;27372;42.658;23.256;2023-12-20T10:46:33;155.95;;;75.40;;
41689;SDS011;27372;42.658;23.256;2023-12-20T10:48:59;141.55;;;77.60;;
41689;SDS011;27372;42.658;23.256;2023-12-20T10:51:29;148.38;;;76.00;;
41689;SDS011;27372;42.658;23.256;2023-12-20T10:53:56;146.10;;;78.15;;
41689;SDS011;27372;42.658;23.256;2023-12-20T10:56:22;146.10;;;77.68;;
41689;SDS011;27372;42.658;23.256;2023-12-20T10:58:50;145.35;;;78.25;;
41689;SDS011;27372;42.658;23.256;2023-12-20T11:01:16;148.45;;;78.03;;
41689;SDS011;27372;42.658;23.256;2023-12-20T11:03:50;143.38;;;78.22;;
41689;SDS011;27372;42.658;23.256;2023-12-20T11:12:11;144.35;;;75.50;;
41689;SDS011;27372;42.658;23.256;2023-12-20T11:14:48;153.68;;;78.18;;
41689;SDS011;27372;42.658;23.256;2023-12-20T11:17:16;141.02;;;75.05;;
41689;SDS011;27372;42.658;23.256;2023-12-20T11:22:27;133.05;;;77.90;;
41689;SDS011;27372;42.658;23.256;2023-12-20T11:24:57;138.02;;;79.13;;
41689;SDS011;27372;42.658;23.256;2023-12-20T11:27:33;133.45;;;76.40;;
41689;SDS011;27372;42.658;23.256;2023-12-20T11:29:59;132.80;;;76.13;;
41689;SDS011;27372;42.658;23.256;2023-12-20T11:32:28;122.70;;;69.63;;
41689;SDS011;27372;42.658;23.256;2023-12-20T11:34:57;130.30;;;73.80;;
41689;SDS011;27372;42.658;23.256;2023-12-20T11:37:35;123.57;;;71.95;;
41689;SDS011;27372;42.658;23.256;2023-12-20T11:40:02;126.80;;;73.05;;
41689;SDS011;27372;42.658;23.256;2023-12-20T11:45:02;135.90;;;73.30;;
41689;SDS011;27372;42.658;23.256;2023-12-20T11:47:28;137.57;;;75.13;;
41689;SDS011;27372;42.658;23.256;2023-12-20T11:49:56;141.57;;;75.57;;
41689;SDS011;27372;42.658;23.256;2023-12-20T11:52:22;135.65;;;75.93;;
41689;SDS011;27372;42.658;23.256;2023-12-20T11:54:47;135.27;;;77.35;;
41689;SDS011;27372;42.658;23.256;2023-12-20T11:57:13;143.80;;;79.50;;
41689;SDS011;27372;42.658;23.256;2023-12-20T11:59:39;144.95;;;77.82;;
41689;SDS011;27372;42.658;23.256;2023-12-20T12:02:04;143.20;;;77.00;;
41689;SDS011;27372;42.658;23.256;2023-12-20T12:04:29;142.38;;;78.30;;
41689;SDS011;27372;42.658;23.256;2023-12-20T12:06:55;143.55;;;77.53;;
41689;SDS011;27372;42.658;23.256;2023-12-20T12:09:20;146.88;;;77.05;;
41689;SDS011;27372;42.658;23.256;2023-12-20T12:11:46;147.15;;;77.82;;
41689;SDS011;27372;42.658;23.256;2023-12-20T12:14:11;142.98;;;78.05;;
41689;SDS011;27372;42.658;23.256;2023-12-20T12:16:37;145.68;;;78.22;;
41689;SDS011;27372;42.658;23.256;2023-12-20T12:19:02;139.80;;;76.47;;
41689;SDS011;27372;42.658;23.256;2023-12-20T12:21:29;152.35;;;79.40;;
41689;SDS011;27372;42.658;23.256;2023-12-20T12:24:03;136.30;;;77.28;;
41689;SDS011;27372;42.658;23.256;2023-12-20T12:26:31;161.35;;;82.68;;
41689;SDS011;27372;42.658;23.256;2023-12-20T12:28:56;147.48;;;79.72;;
41689;SDS011;27372;42.658;23.256;2023-12-20T12:31:22;143.18;;;79.80;;
41689;SDS011;27372;42.658;23.256;2023-12-20T12:33:50;146.93;;;79.10;;
41689;SDS011;27372;42.658;23.256;2023-12-20T12:36:16;148.38;;;76.05;;
41689;SDS011;27372;42.658;23.256;2023-12-20T12:38:42;140.68;;;73.05;;
41689;SDS011;27372;42.658;23.256;2023-12-20T12:41:08;140.32;;;74.88;;
41689;SDS011;27372;42.658;23.256;2023-12-20T12:43:35;143.68;;;75.13;;
41689;SDS011;27372;42.658;23.256;2023-12-20T12:46:00;137.70;;;73.82;;
41689;SDS011;27372;42.658;23.256;2023-12-20T12:48:26;140.43;;;73.47;;
41689;SDS011;27372;42.658;23.256;2023-12-20T12:50:53;135.73;;;72.25;;
41689;SDS011;27372;42.658;23.256;2023-12-20T12:53:19;130.48;;;70.40;;
41689;SDS011;27372;42.658;23.256;2023-12-20T12:55:45;130.32;;;70.72;;
41689;SDS011;27372;42.658;23.256;2023-12-20T12:58:11;133.88;;;70.00;;
41689;SDS011;27372;42.658;23.256;2023-12-20T13:00:36;131.48;;;67.43;;
41689;SDS011;27372;42.658;23.256;2023-12-20T13:03:02;127.90;;;63.55;;
41689;SDS011;27372;42.658;23.256;2023-12-20T13:05:28;125.35;;;64.13;;
41689;SDS011;27372;42.658;23.256;2023-12-20T13:07:54;121.93;;;61.42;;
41689;SDS011;27372;42.658;23.256;2023-12-20T13:10:20;118.28;;;59.70;;
41689;SDS011;27372;42.658;23.256;2023-12-20T13:12:45;120.65;;;60.28;;
41689;SDS011;27372;42.658;23.256;2023-12-20T13:15:10;128.90;;;61.55;;
41689;SDS011;27372;42.658;23.256;2023-12-20T13:17:36;115.88;;;60.45;;
41689;SDS011;27372;42.658;23.256;2023-12-20T13:20:02;119.70;;;62.53;;
41689;SDS011;27372;42.658;23.256;2023-12-20T13:22:28;126.40;;;63.40;;
41689;SDS011;27372;42.658;23.256;2023-12-20T13:24:54;122.18;;;60.20;;
41689;SDS011;27372;42.658;23.256;2023-12-20T13:27:19;129.45;;;61.50;;
41689;SDS011;27372;42.658;23.256;2023-12-20T13:29:45;129.35;;;61.45;;
41689;SDS011;27372;42.658;23.256;2023-12-20T13:32:10;131.70;;;63.85;;
41689;SDS011;27372;42.658;23.256;2023-12-20T13:34:36;134.43;;;62.97;;
41689;SDS011;27372;42.658;23.256;2023-12-20T13:37:01;133.48;;;66.63;;
41689;SDS011;27372;42.658;23.256;2023-12-20T13:39:27;143.13;;;71.15;;
41689;SDS011;27372;42.658;23.256;2023-12-20T13:41:52;146.70;;;72.95;;
41689;SDS011;27372;42.658;23.256;2023-12-20T13:44:18;151.32;;;72.55;;
41689;SDS011;27372;42.658;23.256;2023-12-20T13:46:43;152.63;;;71.80;;
41689;SDS011;27372;42.658;23.256;2023-12-20T13:49:10;141.38;;;69.03;;
41689;SDS011;27372;42.658;23.256;2023-12-20T13:51:37;146.00;;;70.15;;
41689;SDS011;27372;42.658;23.256;2023-12-20T13:54:03;144.20;;;68.95;;
41689;SDS011;27372;42.658;23.256;2023-12-20T13:56:29;139.95;;;68.70;;
41689;SDS011;27372;42.658;23.256;2023-12-20T13:58:54;147.18;;;70.63;;
41689;SDS011;27372;42.658;23.256;2023-12-20T14:01:20;162.63;;;76.63;;
41689;SDS011;27372;42.658;23.256;2023-12-20T14:06:51;169.02;;;74.93;;
41689;SDS011;27372;42.658;23.256;2023-12-20T14:09:16;149.63;;;74.13;;
41689;SDS011;27372;42.658;23.256;2023-12-20T14:11:41;158.57;;;70.05;;
41689;SDS011;27372;42.658;23.256;2023-12-20T14:14:07;143.07;;;68.00;;
41689;SDS011;27372;42.658;23.256;2023-12-20T14:16:33;146.73;;;66.95;;
41689;SDS011;27372;42.658;23.256;2023-12-20T14:19:00;142.25;;;67.72;;
41689;SDS011;27372;42.658;23.256;2023-12-20T14:21:25;146.05;;;69.63;;
41689;SDS011;27372;42.658;23.256;2023-12-20T14:23:50;148.32;;;69.68;;
41689;SDS011;27372;42.658;23.256;2023-12-20T14:26:17;165.32;;;75.40;;
41689;SDS011;27372;42.658;23.256;2023-12-20T14:28:42;156.95;;;74.15;;
41689;SDS011;27372;42.658;23.256;2023-12-20T14:31:08;164.77;;;76.75;;
41689;SDS011;27372;42.658;23.256;2023-12-20T14:33:35;172.70;;;79.15;;
41689;SDS011;27372;42.658;23.256;2023-12-20T14:36:03;178.63;;;82.22;;
41689;SDS011;27372;42.658;23.256;2023-12-20T14:38:31;187.02;;;83.70;;
41689;SDS011;27372;42.658;23.256;2023-12-20T14:40:56;186.63;;;88.38;;